createdAt,value
2019-02-25T00:01:35.025Z,15.97
2019-02-25T00:04:05.104Z,15.77
2019-02-25T00:06:34.119Z,15.87
2019-02-25T00:09:04.324Z,16.10
2019-02-25T00:11:33.277Z,16.80
2019-02-25T00:14:02.767Z,15.93
2019-02-25T00:16:31.751Z,15.37
2019-02-25T00:19:01.899Z,16.23
2019-02-25T00:21:31.057Z,15.77
2019-02-25T00:24:00.469Z,15.43
2019-02-25T00:26:29.436Z,16.40
2019-02-25T00:28:58.312Z,16.53
2019-02-25T00:31:28.329Z,16.87
2019-02-25T00:33:57.826Z,15.63
2019-02-25T00:36:27.044Z,16.07
2019-02-25T00:38:55.935Z,15.73
2019-02-25T00:41:25.272Z,14.93
2019-02-25T00:43:54.367Z,15.57
2019-02-25T00:46:24.438Z,16.37
2019-02-25T00:48:53.910Z,15.00
2019-02-25T00:51:24.061Z,16.70
2019-02-25T00:53:53.152Z,16.43
2019-02-25T00:56:22.638Z,16.77
2019-02-25T00:58:51.863Z,16.33
2019-02-25T01:01:21.137Z,15.83
2019-02-25T01:03:51.770Z,16.70
2019-02-25T01:20:12.507Z,16.10
2019-02-25T01:22:41.486Z,16.30
2019-02-25T01:25:10.775Z,16.30
2019-02-25T01:27:39.735Z,16.70
2019-02-25T01:30:10.558Z,15.80
2019-02-25T01:32:39.414Z,15.73
2019-02-25T01:35:10.111Z,16.00
2019-02-25T01:37:39.063Z,15.87
2019-02-25T01:40:09.237Z,16.33
2019-02-25T01:42:38.305Z,16.37
2019-02-25T01:45:08.923Z,16.87
2019-02-25T01:47:38.441Z,16.03
2019-02-25T01:50:08.153Z,16.00
2019-02-25T01:52:36.978Z,15.37
2019-02-25T01:55:06.217Z,16.00
2019-02-25T01:57:35.296Z,16.10
2019-02-25T02:00:05.126Z,15.40
2019-02-25T02:02:34.327Z,16.33
2019-02-25T02:05:03.298Z,15.87
2019-02-25T02:07:32.115Z,17.23
2019-02-25T02:10:01.027Z,16.13
2019-02-25T02:12:32.106Z,15.93
2019-02-25T02:15:01.460Z,15.90
2019-02-25T02:17:30.343Z,16.17
2019-02-25T02:19:59.178Z,16.67
2019-02-25T02:22:30.245Z,15.97
2019-02-25T02:24:59.435Z,15.87
2019-02-25T02:27:28.275Z,14.47
2019-02-25T02:29:57.407Z,16.40
2019-02-25T02:32:26.483Z,15.90
2019-02-25T02:34:55.321Z,16.50
2019-02-25T02:37:24.174Z,15.93
2019-02-25T02:39:53.018Z,15.83
2019-02-25T02:42:22.624Z,16.50
2019-02-25T02:44:56.738Z,16.60
2019-02-25T02:47:41.458Z,16.50
2019-02-25T02:50:13.502Z,16.47
2019-02-25T02:52:42.384Z,16.50
2019-02-25T02:55:11.395Z,16.73
2019-02-25T02:57:40.411Z,17.33
2019-02-25T03:00:12.919Z,16.57
2019-02-25T03:02:41.808Z,17.37
2019-02-25T03:05:12.525Z,16.23
2019-02-25T03:07:41.474Z,17.23
2019-02-25T03:10:11.702Z,17.33
2019-02-25T03:12:40.871Z,16.47
2019-02-25T03:15:12.848Z,17.33
2019-02-25T03:17:41.695Z,17.03
2019-02-25T03:20:11.250Z,17.60
2019-02-25T03:22:40.482Z,16.30
2019-02-25T03:25:11.343Z,16.07
2019-02-25T03:27:40.330Z,16.93
2019-02-25T03:30:12.669Z,16.73
2019-02-25T03:32:41.551Z,16.50
2019-02-25T03:35:10.824Z,17.00
2019-02-25T03:37:39.626Z,15.87
2019-02-25T03:40:11.720Z,16.80
2019-02-25T03:42:40.905Z,16.47
2019-02-25T03:45:11.038Z,16.00
2019-02-25T03:47:39.981Z,16.50
2019-02-25T03:50:09.164Z,17.10
2019-02-25T03:52:38.394Z,16.33
2019-02-25T03:55:09.066Z,17.17
2019-02-25T03:57:38.073Z,16.37
2019-02-25T04:00:08.668Z,16.17
2019-02-25T04:02:37.728Z,17.63
2019-02-25T04:05:07.292Z,16.00
2019-02-25T04:07:36.609Z,17.17
2019-02-25T04:10:06.169Z,16.10
2019-02-25T04:12:35.498Z,16.00
2019-02-25T04:15:05.624Z,15.37
2019-02-25T04:17:35.875Z,15.80
2019-02-25T04:20:05.344Z,15.47
2019-02-25T04:22:34.364Z,15.47
2019-02-25T04:25:03.224Z,16.00
2019-02-25T04:27:33.177Z,16.13
2019-02-25T04:30:02.080Z,15.33
2019-02-25T04:32:31.326Z,15.63
2019-02-25T04:35:00.561Z,16.33
2019-02-25T04:37:29.499Z,16.27
2019-02-25T04:39:58.400Z,16.10
2019-02-25T04:42:27.328Z,16.10
2019-02-25T04:44:56.186Z,15.40
2019-02-25T04:47:25.106Z,15.77
2019-02-25T04:49:53.972Z,15.93
2019-02-25T04:52:22.939Z,15.87
2019-02-25T04:54:51.782Z,15.23
2019-02-25T04:57:20.649Z,15.53
2019-02-25T04:59:49.641Z,14.87
2019-02-25T05:02:18.469Z,15.33
2019-02-25T05:04:49.442Z,15.23
2019-02-25T05:07:18.251Z,15.27
2019-02-25T05:09:47.294Z,15.60
2019-02-25T05:12:16.088Z,15.50
2019-02-25T05:14:44.999Z,14.80
2019-02-25T05:17:14.393Z,14.77
2019-02-25T05:19:43.395Z,15.23
2019-02-25T05:22:12.541Z,15.40
2019-02-25T05:24:41.548Z,15.80
2019-02-25T05:27:10.739Z,16.50
2019-02-25T05:29:39.553Z,16.70
2019-02-25T05:32:08.514Z,15.37
2019-02-25T05:34:37.341Z,15.40
2019-02-25T05:37:06.320Z,15.67
2019-02-25T05:39:35.412Z,16.03
2019-02-25T05:42:04.743Z,15.07
2019-02-25T05:44:34.493Z,14.80
2019-02-25T05:47:04.729Z,14.80
2019-02-25T05:49:33.574Z,15.37
2019-02-25T05:52:02.399Z,15.97
2019-02-25T05:54:32.442Z,15.33
2019-02-25T05:57:01.277Z,16.00
2019-02-25T05:59:30.248Z,15.17
2019-02-25T06:01:59.204Z,15.87
2019-02-25T06:04:28.083Z,14.43
2019-02-25T06:06:56.969Z,15.23
2019-02-25T06:09:26.920Z,14.67
2019-02-25T06:11:56.214Z,14.37
2019-02-25T06:14:25.527Z,15.67
2019-02-25T06:16:54.467Z,15.60
2019-02-25T06:19:23.350Z,15.47
2019-02-25T06:21:52.244Z,15.80
2019-02-25T06:24:21.224Z,15.97
2019-02-25T06:26:51.433Z,22.22
2019-02-25T06:29:20.275Z,17.80
2019-02-25T06:31:49.140Z,15.87
2019-02-25T06:34:18.175Z,16.43
2019-02-25T06:36:47.226Z,14.27
2019-02-25T06:39:16.090Z,15.03
2019-02-25T06:41:45.186Z,14.90
2019-02-25T06:44:14.160Z,15.90
2019-02-25T06:46:43.065Z,15.97
2019-02-25T06:52:39.941Z,15.10
2019-02-25T06:55:10.699Z,15.27
2019-02-25T06:57:39.549Z,15.60
2019-02-25T07:00:11.632Z,15.53
2019-02-25T07:02:40.858Z,15.90
2019-02-25T07:05:35.319Z,16.27
2019-02-25T07:08:26.470Z,16.07
2019-02-25T07:11:04.501Z,15.10
2019-02-25T07:13:51.461Z,14.60
2019-02-25T07:16:28.297Z,16.03
2019-02-25T07:19:26.188Z,15.87
2019-02-25T07:22:07.039Z,15.90
2019-02-25T07:24:54.065Z,16.90
2019-02-25T07:27:36.974Z,16.27
2019-02-25T07:30:41.858Z,16.37
2019-02-25T07:33:25.489Z,16.13
2019-02-25T07:36:19.687Z,15.93
2019-02-25T07:39:19.527Z,16.17
2019-02-25T07:42:12.710Z,16.77
2019-02-25T07:44:47.321Z,17.60
2019-02-25T07:47:47.262Z,17.63
2019-02-25T07:50:47.165Z,18.10
2019-02-25T07:53:34.470Z,17.27
2019-02-25T07:56:13.899Z,17.37
2019-02-25T07:58:55.241Z,16.83
2019-02-25T08:01:36.974Z,17.83
2019-02-25T08:04:14.603Z,17.53
2019-02-25T08:06:53.514Z,19.27
2019-02-25T08:09:36.518Z,18.77
2019-02-25T08:12:39.800Z,18.67
2019-02-25T08:15:24.187Z,17.63
2019-02-25T08:18:10.616Z,17.97
2019-02-25T08:20:47.306Z,17.37
2019-02-25T08:23:38.022Z,19.40
2019-02-25T08:26:24.722Z,19.17
2019-02-25T08:29:11.515Z,20.03
2019-02-25T08:31:51.346Z,20.67
2019-02-25T08:34:38.152Z,18.67
2019-02-25T08:37:36.786Z,18.87
2019-02-25T08:40:31.876Z,19.87
2019-02-25T08:43:07.151Z,19.17
2019-02-25T08:45:44.207Z,19.80
2019-02-25T08:48:32.190Z,18.77
2019-02-25T08:51:01.234Z,19.00
2019-02-25T08:53:30.203Z,19.20
2019-02-25T08:55:59.629Z,18.20
2019-02-25T08:58:28.939Z,18.10
2019-02-25T09:00:58.831Z,18.70
2019-02-25T09:03:28.374Z,17.90
2019-02-25T09:05:57.366Z,18.20
2019-02-25T09:08:26.280Z,17.63
2019-02-25T09:10:55.508Z,17.80
2019-02-25T09:13:24.343Z,19.40
2019-02-25T09:15:53.242Z,17.40
2019-02-25T09:18:23.100Z,17.47
2019-02-25T09:20:51.950Z,17.33
2019-02-25T09:23:20.906Z,16.20
2019-02-25T09:25:49.764Z,17.00
2019-02-25T09:28:18.592Z,16.80
2019-02-25T09:30:47.510Z,17.63
2019-02-25T09:33:18.499Z,17.00
2019-02-25T09:35:47.472Z,16.77
2019-02-25T09:38:16.450Z,15.80
2019-02-25T09:40:45.781Z,16.77
2019-02-25T09:43:15.071Z,16.87
2019-02-25T09:45:44.130Z,16.77
2019-02-25T09:48:13.078Z,15.57
2019-02-25T09:50:42.223Z,15.87
2019-02-25T09:53:11.396Z,16.97
2019-02-25T09:55:40.529Z,15.87
2019-02-25T09:58:09.521Z,16.57
2019-02-25T10:00:40.276Z,17.93
2019-02-25T10:03:10.574Z,15.77
2019-02-25T10:05:40.134Z,16.13
2019-02-25T10:08:09.033Z,15.50
2019-02-25T10:10:37.979Z,15.57
2019-02-25T10:13:06.953Z,14.73
2019-02-25T10:15:36.032Z,15.20
2019-02-25T10:18:07.820Z,15.07
2019-02-25T10:20:36.750Z,14.53
2019-02-25T10:23:05.956Z,15.80
2019-02-25T10:25:35.088Z,16.13
2019-02-25T10:28:12.617Z,15.93
2019-02-25T10:30:41.436Z,14.83
2019-02-25T10:33:10.265Z,15.80
2019-02-25T10:35:39.184Z,15.40
2019-02-25T10:38:08.390Z,15.77
2019-02-25T10:40:37.261Z,14.20
2019-02-25T10:43:06.405Z,15.40
2019-02-25T10:45:59.929Z,13.60
2019-02-25T10:48:42.134Z,15.07
2019-02-25T10:51:27.126Z,14.63
2019-02-25T10:54:04.101Z,14.47
2019-02-25T10:57:02.914Z,14.03
2019-02-25T10:59:34.583Z,13.83
2019-02-25T11:02:09.105Z,14.37
2019-02-25T11:04:38.810Z,14.70
2019-02-25T11:07:09.676Z,14.37
2019-02-25T11:10:10.008Z,14.07
2019-02-25T11:12:40.503Z,13.33
2019-02-25T11:15:11.471Z,12.80
2019-02-25T11:17:40.270Z,13.97
2019-02-25T11:20:10.187Z,14.47
2019-02-25T11:22:39.910Z,14.00
2019-02-25T11:25:09.844Z,13.67
2019-02-25T11:27:40.012Z,14.10
2019-02-25T11:30:12.102Z,15.23
2019-02-25T11:32:41.056Z,14.53
2019-02-25T11:35:16.115Z,14.60
2019-02-25T11:37:45.969Z,14.73
2019-02-25T11:40:15.040Z,14.00
2019-02-25T11:42:44.218Z,14.80
2019-02-25T11:45:13.256Z,15.90
2019-02-25T11:47:42.517Z,15.23
2019-02-25T11:50:13.014Z,15.27
2019-02-25T11:52:42.078Z,14.97
2019-02-25T11:55:11.234Z,14.80
2019-02-25T11:57:40.233Z,15.60
2019-02-25T12:00:14.081Z,14.43
2019-02-25T12:02:44.114Z,15.10
2019-02-25T12:05:14.038Z,14.90
2019-02-25T12:07:43.186Z,13.93
2019-02-25T12:10:13.287Z,14.60
2019-02-25T12:12:42.449Z,13.63
2019-02-25T12:15:13.109Z,14.13
2019-02-25T12:17:42.217Z,14.23
2019-02-25T12:20:12.251Z,14.50
2019-02-25T12:22:41.249Z,13.43
2019-02-25T12:25:11.474Z,13.93
2019-02-25T12:27:40.568Z,14.83
2019-02-25T12:30:13.195Z,13.87
2019-02-25T12:32:42.300Z,14.40
2019-02-25T12:35:13.306Z,13.37
2019-02-25T12:37:42.393Z,14.27
2019-02-25T12:40:11.806Z,13.93
2019-02-25T12:42:41.970Z,13.43
2019-02-25T12:45:11.992Z,13.10
2019-02-25T12:47:48.732Z,12.57
2019-02-25T12:50:17.672Z,12.80
2019-02-25T12:52:47.121Z,12.30
2019-02-25T12:55:16.063Z,11.97
2019-02-25T12:57:44.935Z,11.93
2019-02-25T13:00:14.697Z,10.60
2019-02-25T13:02:46.422Z,11.60
2019-02-25T13:05:15.901Z,10.33
2019-02-25T13:07:47.960Z,11.90
2019-02-25T13:10:17.636Z,11.63
2019-02-25T13:12:51.412Z,10.57
2019-02-25T13:15:21.370Z,9.80
2019-02-25T13:17:50.302Z,10.33
2019-02-25T13:20:27.114Z,12.53
2019-02-25T13:23:15.315Z,11.10
2019-02-25T13:26:06.974Z,11.30
2019-02-25T13:28:41.720Z,10.80
2019-02-25T13:31:37.045Z,11.27
2019-02-25T13:34:08.075Z,10.63
2019-02-25T13:36:38.022Z,10.87
2019-02-25T13:41:47.443Z,10.97
2019-02-25T13:44:16.301Z,11.47
2019-02-25T13:46:45.500Z,11.33
2019-02-25T13:49:14.679Z,10.53
2019-02-25T13:51:44.257Z,11.47
2019-02-25T13:54:14.752Z,11.13
2019-02-25T13:56:43.933Z,11.30
2019-02-25T13:59:12.980Z,11.87
2019-02-25T14:01:42.422Z,12.17
2019-02-25T14:04:11.456Z,11.47
2019-02-25T14:06:40.401Z,11.50
2019-02-25T14:09:10.798Z,10.77
2019-02-25T14:11:40.527Z,11.53
2019-02-25T14:14:10.558Z,11.17
2019-02-25T14:16:39.541Z,11.00
2019-02-25T14:19:09.032Z,10.73
2019-02-25T14:21:38.126Z,10.07
2019-02-25T14:24:07.235Z,11.50
2019-02-25T14:26:37.471Z,10.63
2019-02-25T14:29:07.366Z,12.00
2019-02-25T14:31:36.413Z,9.80
2019-02-25T14:34:05.649Z,10.60
2019-02-25T14:36:34.566Z,10.20
2019-02-25T14:39:06.155Z,10.73
2019-02-25T14:41:35.700Z,11.17
2019-02-25T14:44:05.238Z,11.83
2019-02-25T14:46:34.206Z,11.27
2019-02-25T14:49:03.201Z,10.53
2019-02-25T14:51:35.141Z,10.90
2019-02-25T14:54:03.987Z,12.07
2019-02-25T14:56:33.372Z,11.30
2019-02-25T14:59:12.517Z,11.47
2019-02-25T15:01:40.135Z,10.50
2019-02-25T15:04:09.794Z,10.67
2019-02-25T15:06:38.883Z,9.97
2019-02-25T15:09:12.041Z,9.70
2019-02-25T15:11:41.068Z,9.70
2019-02-25T15:14:10.723Z,9.83
2019-02-25T15:16:40.777Z,9.60
2019-02-25T15:19:09.729Z,10.13
2019-02-25T15:21:38.778Z,9.47
2019-02-25T15:24:14.744Z,10.07
2019-02-25T15:26:49.323Z,10.40
2019-02-25T15:29:18.752Z,10.33
2019-02-25T15:31:50.504Z,11.40
2019-02-25T15:34:21.189Z,10.13
2019-02-25T15:36:50.342Z,10.48
2019-02-25T15:39:19.911Z,11.28
2019-02-25T15:41:50.480Z,10.93
2019-02-25T15:44:19.831Z,11.08
2019-02-25T15:46:49.286Z,11.38
2019-02-25T15:49:19.735Z,10.60
2019-02-25T15:51:50.161Z,11.00
2019-02-25T15:54:21.806Z,11.78
2019-02-25T15:56:51.839Z,11.40
2019-02-25T15:59:21.033Z,11.53
2019-02-25T16:01:50.845Z,10.70
2019-02-25T16:04:20.053Z,11.03
2019-02-25T16:06:51.294Z,11.77
2019-02-25T16:09:23.838Z,11.77
2019-02-25T16:11:52.452Z,12.20
2019-02-25T16:14:23.377Z,12.87
2019-02-25T16:16:52.772Z,12.57
2019-02-25T16:19:22.082Z,12.40
2019-02-25T16:21:52.637Z,11.90
2019-02-25T16:24:22.003Z,12.47
2019-02-25T16:26:51.145Z,12.47
2019-02-25T16:29:20.011Z,12.23
2019-02-25T16:31:51.521Z,12.40
2019-02-25T16:34:20.985Z,12.57
2019-02-25T16:36:58.225Z,13.17
2019-02-25T16:39:28.379Z,15.55
2019-02-25T16:41:57.936Z,12.97
2019-02-25T16:44:26.802Z,13.37
2019-02-25T16:46:56.217Z,13.97
2019-02-25T16:49:25.741Z,14.43
2019-02-25T16:51:57.706Z,14.07
2019-02-25T16:54:27.252Z,14.10
2019-02-25T16:56:56.623Z,15.03
2019-02-25T16:59:29.437Z,14.93
2019-02-25T17:02:00.015Z,14.60
2019-02-25T17:04:32.801Z,14.13
2019-02-25T17:07:01.983Z,14.13
2019-02-25T17:09:36.383Z,14.40
2019-02-25T17:12:06.819Z,13.50
2019-02-25T17:14:41.552Z,14.17
2019-02-25T17:17:12.558Z,13.40
2019-02-25T17:19:44.733Z,12.97
2019-02-25T17:22:15.542Z,12.93
2019-02-25T17:24:52.397Z,13.10
2019-02-25T17:27:22.134Z,13.50
2019-02-25T17:29:52.930Z,13.33
2019-02-25T17:32:23.326Z,13.77
2019-02-25T17:34:56.556Z,14.73
2019-02-25T17:37:26.768Z,13.97
2019-02-25T17:39:58.494Z,14.00
2019-02-25T17:42:27.414Z,14.53
2019-02-25T17:44:57.669Z,14.37
2019-02-25T17:47:30.585Z,15.23
2019-02-25T17:50:00.846Z,14.57
2019-02-25T17:52:30.145Z,14.53
2019-02-25T17:54:59.129Z,14.60
2019-02-25T17:57:29.867Z,14.43
2019-02-25T17:59:59.710Z,14.53
2019-02-25T18:02:31.254Z,15.30
2019-02-25T18:05:00.232Z,14.47
2019-02-25T18:07:29.349Z,14.10
2019-02-25T18:13:08.204Z,15.43
2019-02-25T18:15:36.414Z,15.80
2019-02-25T18:18:11.597Z,15.33
2019-02-25T18:20:48.582Z,15.40
2019-02-25T18:23:21.237Z,15.40
2019-02-25T18:25:48.821Z,14.67
2019-02-25T18:28:19.671Z,15.63
2019-02-25T18:30:48.671Z,15.03
2019-02-25T18:33:20.399Z,16.03
2019-02-25T18:35:49.085Z,15.83
2019-02-25T18:38:18.130Z,14.57
2019-02-25T18:40:47.073Z,15.03
2019-02-25T18:43:16.738Z,16.40
2019-02-25T18:45:45.655Z,15.13
2019-02-25T18:48:17.372Z,15.53
2019-02-25T18:50:50.203Z,15.70
2019-02-25T18:53:20.511Z,15.13
2019-02-25T18:55:52.256Z,15.83
2019-02-25T18:58:21.629Z,16.60
2019-02-25T19:00:51.485Z,16.33
2019-02-25T19:03:21.623Z,16.37
2019-02-25T19:05:51.691Z,15.73
2019-02-25T19:08:22.862Z,16.07
2019-02-25T19:10:57.141Z,16.63
2019-02-25T19:13:32.169Z,16.43
2019-02-25T19:16:07.048Z,16.70
2019-02-25T19:18:36.342Z,17.33
2019-02-25T19:21:08.699Z,16.43
2019-02-25T19:23:39.479Z,16.43
2019-02-25T19:26:10.459Z,16.53
2019-02-25T19:28:39.281Z,16.30
2019-02-25T19:31:08.793Z,16.87
2019-02-25T19:33:38.193Z,17.87
2019-02-25T19:36:08.122Z,17.83
2019-02-25T19:38:41.950Z,19.77
2019-02-25T19:41:11.061Z,19.10
2019-02-25T19:43:39.839Z,19.63
2019-02-25T19:46:11.026Z,18.63
2019-02-25T19:48:40.214Z,18.47
2019-02-25T19:51:12.242Z,18.90
2019-02-25T19:53:42.976Z,17.80
2019-02-25T19:56:11.921Z,19.30
2019-02-25T19:58:41.238Z,18.67
2019-02-25T20:01:10.997Z,18.40
2019-02-25T20:03:42.490Z,18.60
2019-02-25T20:06:13.904Z,18.90
2019-02-25T20:08:43.036Z,18.47
2019-02-25T20:11:12.522Z,19.20
2019-02-25T20:13:42.986Z,19.00
2019-02-25T20:16:15.721Z,18.50
2019-02-25T20:18:44.510Z,19.23
2019-02-25T20:21:13.660Z,19.70
2019-02-25T20:23:42.483Z,19.53
2019-02-25T20:26:13.454Z,19.07
2019-02-25T20:28:46.180Z,19.40
2019-02-25T20:31:16.729Z,19.63
2019-02-25T20:33:47.073Z,19.13
2019-02-25T20:36:19.202Z,19.30
2019-02-25T20:38:47.775Z,19.43
2019-02-25T20:41:19.915Z,20.47
2019-02-25T20:43:53.276Z,18.73
2019-02-25T20:46:19.984Z,19.90
2019-02-25T20:48:49.071Z,19.47
2019-02-25T20:51:29.172Z,18.93
2019-02-25T20:53:57.526Z,19.40
2019-02-25T20:56:28.791Z,19.67
2019-02-25T20:58:58.963Z,19.00
2019-02-25T21:01:29.138Z,19.10
2019-02-25T21:03:58.059Z,19.17
2019-02-25T21:06:33.058Z,19.30
2019-02-25T21:09:11.123Z,20.17
2019-02-25T21:11:40.241Z,19.37
2019-02-25T21:14:09.137Z,20.60
2019-02-25T21:16:38.198Z,19.87
2019-02-25T21:19:08.053Z,20.30
2019-02-25T21:21:39.723Z,20.63
2019-02-25T21:24:11.272Z,20.57
2019-02-25T21:26:40.942Z,21.20
2019-02-25T21:29:10.189Z,20.43
2019-02-25T21:31:42.723Z,20.10
2019-02-25T21:34:09.910Z,19.87
2019-02-25T21:36:40.378Z,20.13
2019-02-25T21:39:12.226Z,20.40
2019-02-25T21:41:43.583Z,20.00
2019-02-25T21:44:16.676Z,21.00
2019-02-25T21:46:43.222Z,20.17
2019-02-25T21:49:12.070Z,20.37
2019-02-25T21:51:41.577Z,19.53
2019-02-25T21:54:11.577Z,19.70
2019-02-25T21:56:42.016Z,20.23
2019-02-25T21:59:12.777Z,20.47
2019-02-25T22:01:42.185Z,20.90
2019-02-25T22:04:13.396Z,19.90
2019-02-25T22:06:42.395Z,19.67
2019-02-25T22:09:12.176Z,19.90
2019-02-25T22:11:44.105Z,21.30
2019-02-25T22:14:15.896Z,20.07
2019-02-25T22:16:44.841Z,21.13
2019-02-25T22:19:14.723Z,20.30
2019-02-25T22:21:44.562Z,19.20
2019-02-25T22:24:16.118Z,19.63
2019-02-25T22:26:44.943Z,19.93
2019-02-25T22:29:14.210Z,19.30
2019-02-25T22:31:44.254Z,18.23
2019-02-25T22:34:15.336Z,20.03
2019-02-25T22:36:46.197Z,18.63
2019-02-25T22:39:15.293Z,19.73
2019-02-25T22:41:46.160Z,19.20
2019-02-25T22:44:14.975Z,19.90
2019-02-25T22:46:44.141Z,19.57
2019-02-25T22:49:13.090Z,19.47
2019-02-25T22:51:42.495Z,19.47
2019-02-25T22:54:12.473Z,19.57
2019-02-25T22:56:42.544Z,19.10
2019-02-25T22:59:11.797Z,18.57
2019-02-25T23:01:40.827Z,20.20
2019-02-25T23:04:13.060Z,18.07
2019-02-25T23:06:43.919Z,17.43
2019-02-25T23:09:14.115Z,18.30
2019-02-25T23:11:44.268Z,19.33
2019-02-25T23:14:15.697Z,18.17
2019-02-25T23:16:45.791Z,18.07
2019-02-25T23:19:18.051Z,16.80
2019-02-25T23:21:48.779Z,18.17
2019-02-25T23:24:18.023Z,19.00
2019-02-25T23:26:48.661Z,17.33
2019-02-25T23:29:30.415Z,18.47
2019-02-25T23:32:02.029Z,17.20
2019-02-25T23:34:30.408Z,18.57
2019-02-25T23:36:59.721Z,18.23
2019-02-25T23:39:32.029Z,18.03
2019-02-25T23:42:00.616Z,18.13
2019-02-25T23:44:32.530Z,17.73
2019-02-25T23:47:02.015Z,17.80
2019-02-25T23:49:31.836Z,18.63
2019-02-25T23:52:01.444Z,17.90
2019-02-25T23:54:30.423Z,18.03
2019-02-25T23:57:01.587Z,18.57
2019-02-25T23:59:30.636Z,17.07
